createdAt,value
2018-01-04T00:00:19.794Z,2.80
2018-01-04T00:02:48.194Z,2.40
2018-01-04T00:05:15.822Z,3.42
2018-01-04T00:07:43.443Z,2.50
2018-01-04T00:10:11.054Z,2.65
2018-01-04T00:12:38.669Z,2.25
2018-01-04T00:15:06.264Z,2.20
2018-01-04T00:17:33.882Z,2.30
2018-01-04T00:20:02.287Z,2.97
2018-01-04T00:22:29.913Z,2.47
2018-01-04T00:24:57.499Z,2.30
2018-01-04T00:27:25.138Z,2.85
2018-01-04T00:29:52.782Z,2.50
2018-01-04T00:32:20.446Z,2.70
2018-01-04T00:34:48.059Z,2.30
2018-01-04T00:37:15.736Z,2.85
2018-01-04T00:39:43.333Z,2.92
2018-01-04T00:42:10.982Z,2.12
2018-01-04T00:44:38.600Z,2.05
2018-01-04T00:47:06.216Z,2.40
2018-01-04T00:49:35.238Z,1.83
2018-01-04T00:52:02.822Z,1.85
2018-01-04T00:54:30.783Z,1.85
2018-01-04T00:56:58.404Z,1.70
2018-01-04T00:59:26.059Z,2.50
2018-01-04T01:01:54.419Z,2.25
2018-01-04T01:04:22.034Z,2.17
2018-01-04T01:06:49.661Z,2.00
2018-01-04T01:09:17.266Z,2.25
2018-01-04T01:11:44.896Z,1.90
2018-01-04T01:14:13.256Z,1.90
2018-01-04T01:16:40.829Z,2.85
2018-01-04T01:19:08.485Z,2.55
2018-01-04T01:21:36.129Z,2.15
2018-01-04T01:24:03.730Z,2.90
2018-01-04T01:26:31.352Z,2.80
2018-01-04T01:28:59.014Z,2.60
2018-01-04T01:31:26.676Z,2.40
2018-01-04T01:33:55.155Z,2.83
2018-01-04T01:36:22.785Z,2.60
2018-01-04T01:38:51.169Z,2.37
2018-01-04T01:41:19.564Z,2.90
2018-01-04T01:43:47.958Z,2.70
2018-01-04T01:46:15.576Z,3.00
2018-01-04T01:48:43.179Z,2.45
2018-01-04T01:51:11.569Z,2.20
2018-01-04T01:53:39.942Z,2.85
2018-01-04T01:56:08.341Z,2.30
2018-01-04T01:58:36.734Z,2.40
2018-01-04T02:01:04.389Z,2.87
2018-01-04T02:03:31.994Z,2.35
2018-01-04T02:05:59.615Z,3.67
2018-01-04T02:08:27.981Z,2.10
2018-01-04T02:10:55.633Z,2.08
2018-01-04T02:13:23.240Z,2.40
2018-01-04T02:15:50.960Z,2.00
2018-01-04T02:18:30.481Z,2.15
2018-01-04T02:21:09.921Z,2.08
2018-01-04T02:23:49.341Z,2.10
2018-01-04T02:26:28.785Z,2.53
2018-01-04T02:28:58.106Z,1.77
2018-01-04T02:31:37.768Z,2.28
2018-01-04T02:34:17.251Z,1.73
2018-01-04T02:36:56.881Z,1.98
2018-01-04T02:39:36.400Z,1.58
2018-01-04T02:42:28.876Z,1.70
2018-01-04T02:45:08.223Z,1.80
2018-01-04T02:47:35.820Z,1.90
2018-01-04T02:50:04.238Z,1.70
2018-01-04T02:52:31.838Z,1.60
2018-01-04T02:54:59.443Z,2.35
2018-01-04T02:57:27.830Z,1.70
2018-01-04T02:59:55.652Z,1.90
2018-01-04T03:02:23.482Z,2.33
2018-01-04T03:04:51.162Z,2.08
2018-01-04T03:07:18.807Z,4.30
2018-01-04T03:09:47.195Z,1.85
2018-01-04T03:12:14.831Z,1.83
2018-01-04T03:14:42.458Z,2.28
2018-01-04T03:17:10.073Z,1.70
2018-01-04T03:19:37.698Z,1.85
2018-01-04T03:22:26.149Z,1.65
2018-01-04T03:24:59.472Z,1.87
2018-01-04T03:27:32.757Z,2.33
2018-01-04T03:30:06.067Z,1.98
2018-01-04T03:32:39.195Z,1.80
2018-01-04T03:35:12.557Z,1.58
2018-01-04T03:37:45.831Z,1.90
2018-01-04T03:40:19.182Z,1.50
2018-01-04T03:43:02.492Z,1.50
2018-01-04T03:45:37.131Z,1.45
2018-01-04T03:48:10.517Z,1.90
2018-01-04T03:50:43.863Z,1.37
2018-01-04T03:53:17.020Z,1.60
2018-01-04T03:55:50.253Z,1.60
2018-01-04T03:58:18.887Z,1.25
2018-01-04T04:00:52.301Z,1.30
2018-01-04T04:03:19.942Z,1.37
2018-01-04T04:05:53.919Z,1.27
2018-01-04T04:08:27.138Z,1.50
2018-01-04T04:10:55.620Z,1.40
2018-01-04T04:13:24.066Z,1.90
2018-01-04T04:15:51.680Z,2.20
2018-01-04T04:18:20.095Z,1.50
2018-01-04T04:20:47.706Z,1.10
2018-01-04T04:23:15.345Z,1.15
2018-01-04T04:25:42.980Z,1.35
2018-01-04T04:28:10.614Z,1.20
2018-01-04T04:30:38.231Z,1.10
2018-01-04T04:33:05.862Z,1.40
2018-01-04T04:35:34.257Z,1.10
2018-01-04T04:38:01.915Z,1.10
2018-01-04T04:40:30.261Z,1.10
2018-01-04T04:42:57.880Z,1.45
2018-01-04T04:45:25.518Z,1.30
2018-01-04T04:47:53.144Z,1.15
2018-01-04T04:50:20.801Z,1.20
2018-01-04T04:52:48.402Z,1.15
2018-01-04T04:55:16.005Z,1.10
2018-01-04T04:57:44.400Z,1.10
2018-01-04T05:00:12.001Z,1.20
2018-01-04T05:02:39.641Z,1.20
2018-01-04T05:05:07.270Z,1.10
2018-01-04T05:07:35.662Z,1.10
2018-01-04T05:10:04.065Z,1.40
2018-01-04T05:12:31.687Z,0.95
2018-01-04T05:14:59.283Z,0.80
2018-01-04T05:17:27.685Z,0.90
2018-01-04T05:19:55.285Z,0.95
2018-01-04T05:22:22.937Z,1.25
2018-01-04T05:24:50.527Z,0.95
2018-01-04T05:27:18.131Z,1.10
2018-01-04T05:29:46.512Z,1.10
2018-01-04T05:32:14.155Z,1.00
2018-01-04T05:34:42.800Z,1.00
2018-01-04T05:37:10.410Z,1.00
2018-01-04T05:39:38.818Z,1.00
2018-01-04T05:42:07.166Z,1.10
2018-01-04T05:44:34.820Z,1.00
2018-01-04T05:47:02.441Z,1.00
2018-01-04T05:49:31.825Z,1.00
2018-01-04T05:52:00.202Z,1.00
2018-01-04T05:54:28.598Z,1.00
2018-01-04T05:56:57.025Z,1.10
2018-01-04T05:59:24.652Z,1.00
2018-01-04T06:01:52.344Z,1.00
2018-01-04T06:04:20.004Z,1.75
2018-01-04T06:06:47.598Z,0.98
2018-01-04T06:09:15.221Z,1.00
2018-01-04T06:11:42.864Z,1.20
2018-01-04T06:14:10.428Z,1.00
2018-01-04T06:16:38.080Z,1.30
2018-01-04T06:19:05.681Z,1.20
2018-01-04T06:21:33.334Z,1.33
2018-01-04T06:24:01.790Z,1.12
2018-01-04T06:26:29.446Z,1.42
2018-01-04T06:28:57.186Z,1.30
2018-01-04T06:31:25.132Z,1.20
2018-01-04T06:33:53.620Z,1.17
2018-01-04T06:36:22.064Z,1.23
2018-01-04T06:38:49.664Z,1.10
2018-01-04T06:41:18.032Z,1.12
2018-01-04T06:43:45.668Z,1.20
2018-01-04T06:46:13.326Z,1.10
2018-01-04T06:48:40.927Z,1.20
2018-01-04T06:51:08.522Z,1.23
2018-01-04T06:53:36.934Z,1.20
2018-01-04T06:56:04.580Z,1.35
2018-01-04T06:58:32.225Z,1.50
2018-01-04T07:00:59.879Z,1.15
2018-01-04T07:03:27.495Z,1.10
2018-01-04T07:05:55.138Z,1.20
2018-01-04T07:08:23.496Z,1.40
2018-01-04T07:10:51.158Z,1.10
2018-01-04T07:13:18.781Z,1.10
2018-01-04T07:15:46.379Z,1.08
2018-01-04T07:18:14.037Z,1.10
2018-01-04T07:20:42.109Z,1.00
2018-01-04T07:23:15.635Z,1.00
2018-01-04T07:25:43.269Z,1.40
2018-01-04T07:28:10.936Z,1.27
2018-01-04T07:30:38.560Z,1.10
2018-01-04T07:33:06.940Z,1.00
2018-01-04T07:35:35.355Z,1.20
2018-01-04T07:38:03.103Z,1.33
2018-01-04T07:40:31.507Z,1.30
2018-01-04T07:42:59.292Z,1.50
2018-01-04T07:45:26.886Z,1.40
2018-01-04T07:47:54.503Z,1.40
2018-01-04T07:50:22.102Z,1.20
2018-01-04T07:52:49.697Z,1.40
2018-01-04T07:55:17.320Z,2.12
2018-01-04T07:57:44.941Z,1.27
2018-01-04T08:00:13.361Z,1.40
2018-01-04T08:02:40.983Z,1.40
2018-01-04T08:05:08.588Z,1.45
2018-01-04T08:07:36.175Z,1.42
2018-01-04T08:10:03.817Z,1.45
2018-01-04T08:12:31.465Z,1.42
2018-01-04T08:14:59.878Z,1.45
2018-01-04T08:17:27.536Z,1.40
2018-01-04T08:19:55.135Z,1.30
2018-01-04T08:22:23.068Z,1.50
2018-01-04T08:24:52.436Z,1.30
2018-01-04T08:27:20.840Z,1.20
2018-01-04T08:29:49.243Z,1.10
2018-01-04T08:32:16.870Z,1.10
2018-01-04T08:34:47.826Z,1.40
2018-01-04T08:37:16.239Z,1.30
2018-01-04T08:39:43.860Z,1.40
2018-01-04T08:42:11.516Z,1.37
2018-01-04T08:44:39.314Z,1.10
2018-01-04T08:47:07.674Z,1.33
2018-01-04T08:49:35.314Z,1.25
2018-01-04T08:52:02.931Z,1.33
2018-01-04T08:54:30.576Z,1.30
2018-01-04T08:56:59.236Z,1.30
2018-01-04T08:59:26.844Z,1.27
2018-01-04T09:01:55.243Z,1.60
2018-01-04T09:04:22.876Z,1.50
2018-01-04T09:06:50.506Z,1.50
2018-01-04T09:09:18.121Z,1.67
2018-01-04T09:11:45.726Z,1.45
2018-01-04T09:14:14.167Z,1.77
2018-01-04T09:16:41.827Z,1.83
2018-01-04T09:19:09.448Z,1.60
2018-01-04T09:21:37.076Z,1.65
2018-01-04T09:24:05.509Z,1.48
2018-01-04T09:26:33.157Z,1.70
2018-01-04T09:29:00.785Z,1.65
2018-01-04T09:31:28.442Z,1.52
2018-01-04T09:33:57.312Z,1.70
2018-01-04T09:36:24.932Z,1.48
2018-01-04T09:38:52.579Z,1.62
2018-01-04T09:41:20.176Z,1.65
2018-01-04T09:43:47.835Z,1.80
2018-01-04T09:46:16.364Z,1.92
2018-01-04T09:48:45.088Z,2.20
2018-01-04T09:51:14.724Z,1.60
2018-01-04T09:53:46.603Z,1.40
2018-01-04T09:56:15.830Z,1.42
2018-01-04T09:58:44.875Z,1.40
2018-01-04T10:01:12.667Z,1.62
2018-01-04T10:03:40.682Z,1.23
2018-01-04T10:06:08.375Z,2.10
2018-01-04T10:08:36.878Z,1.70
2018-01-04T10:11:04.559Z,1.50
2018-01-04T10:13:32.340Z,1.87
2018-01-04T10:16:00.070Z,2.65
2018-01-04T10:18:28.993Z,1.92
2018-01-04T10:20:56.741Z,2.40
2018-01-04T10:23:24.480Z,1.50
2018-01-04T10:25:52.640Z,1.62
2018-01-04T10:28:20.387Z,1.60
2018-01-04T10:30:48.875Z,1.40
2018-01-04T10:33:16.636Z,1.40
2018-01-04T10:35:44.449Z,1.45
2018-01-04T10:38:12.330Z,1.30
2018-01-04T10:40:40.077Z,1.58
2018-01-04T10:43:07.991Z,1.67
2018-01-04T10:45:36.399Z,2.00
2018-01-04T10:48:05.522Z,1.50
2018-01-04T10:50:33.528Z,1.98
2018-01-04T10:53:01.336Z,1.60
2018-01-04T10:55:30.405Z,1.45
2018-01-04T10:57:59.023Z,1.50
2018-01-04T11:00:26.845Z,1.55
2018-01-04T11:02:54.442Z,1.40
2018-01-04T11:05:22.087Z,1.37
2018-01-04T11:07:49.718Z,1.85
2018-01-04T11:10:17.385Z,1.80
2018-01-04T11:12:45.668Z,1.58
2018-01-04T11:15:13.239Z,2.00
2018-01-04T11:17:40.924Z,2.28
2018-01-04T11:20:08.548Z,1.80
2018-01-04T11:22:36.152Z,2.05
2018-01-04T11:25:03.839Z,2.15
2018-01-04T11:27:31.505Z,2.60
2018-01-04T11:29:59.122Z,2.67
2018-01-04T11:32:26.735Z,2.78
2018-01-04T11:34:54.354Z,3.10
2018-01-04T11:37:21.988Z,3.78
2018-01-04T11:39:50.386Z,3.42
2018-01-04T11:42:18.835Z,2.95
2018-01-04T11:44:46.466Z,2.50
2018-01-04T11:47:14.066Z,3.90
2018-01-04T11:49:41.693Z,3.30
2018-01-04T11:52:09.303Z,3.33
2018-01-04T11:54:36.923Z,2.83
2018-01-04T11:57:04.523Z,2.80
2018-01-04T11:59:32.124Z,3.33
2018-01-04T12:02:00.716Z,2.85
2018-01-04T12:04:29.167Z,3.00
2018-01-04T12:06:56.796Z,2.90
2018-01-04T12:09:24.412Z,2.60
2018-01-04T12:11:52.037Z,2.58
2018-01-04T12:14:19.695Z,2.85
2018-01-04T12:16:47.287Z,2.90
2018-01-04T12:19:15.950Z,3.05
2018-01-04T12:21:44.553Z,2.80
2018-01-04T12:24:12.184Z,3.42
2018-01-04T12:26:40.574Z,3.28
2018-01-04T12:29:08.223Z,3.60
2018-01-04T12:31:35.864Z,2.42
2018-01-04T12:34:03.470Z,2.90
2018-01-04T12:36:31.889Z,2.60
2018-01-04T12:38:59.504Z,3.92
2018-01-04T12:41:27.107Z,3.97
2018-01-04T12:43:54.750Z,2.37
2018-01-04T12:46:22.408Z,2.40
2018-01-04T12:48:50.816Z,1.95
2018-01-04T12:51:18.430Z,1.60
2018-01-04T12:53:46.395Z,2.40
2018-01-04T12:56:14.018Z,2.03
2018-01-04T12:58:41.630Z,2.40
2018-01-04T13:01:09.463Z,1.95
2018-01-04T13:03:37.183Z,1.85
2018-01-04T13:06:05.099Z,1.67
2018-01-04T13:08:32.730Z,1.83
2018-01-04T13:11:00.681Z,1.80
2018-01-04T13:13:28.311Z,1.60
2018-01-04T13:15:55.996Z,1.42
2018-01-04T13:18:23.810Z,1.50
2018-01-04T13:20:51.466Z,1.40
2018-01-04T13:23:19.880Z,1.70
2018-01-04T13:25:48.274Z,1.65
2018-01-04T13:28:15.912Z,1.67
2018-01-04T13:30:44.335Z,1.50
2018-01-04T13:33:12.024Z,1.65
2018-01-04T13:35:39.639Z,1.57
2018-01-04T13:38:08.032Z,1.58
2018-01-04T13:40:35.657Z,1.65
2018-01-04T13:43:03.317Z,1.87
2018-01-04T13:45:30.924Z,1.60
2018-01-04T13:47:58.643Z,1.60
2018-01-04T13:50:26.327Z,1.70
2018-01-04T13:52:53.941Z,1.33
2018-01-04T13:55:21.622Z,1.73
2018-01-04T13:57:49.318Z,1.30
2018-01-04T14:00:17.031Z,1.50
2018-01-04T14:02:44.731Z,1.80
2018-01-04T14:05:12.514Z,1.60
2018-01-04T14:07:40.157Z,1.50
2018-01-04T14:10:07.800Z,1.50
2018-01-04T14:12:36.175Z,1.70
2018-01-04T14:15:04.577Z,1.40
2018-01-04T14:17:32.230Z,1.60
2018-01-04T14:20:00.640Z,1.50
2018-01-04T14:22:28.332Z,1.33
2018-01-04T14:25:05.161Z,1.40
2018-01-04T14:27:35.247Z,1.30
2018-01-04T14:30:08.192Z,1.67
2018-01-04T14:35:11.251Z,1.73
2018-01-04T14:37:38.968Z,1.70
2018-01-04T14:40:06.630Z,1.50
2018-01-04T14:42:34.298Z,1.70
2018-01-04T14:45:01.930Z,2.63
2018-01-04T14:47:29.574Z,1.63
2018-01-04T14:49:57.254Z,1.80
2018-01-04T14:52:24.960Z,1.70
2018-01-04T14:54:52.631Z,1.95
2018-01-04T14:57:21.002Z,1.47
2018-01-04T14:59:48.612Z,1.50
2018-01-04T15:02:18.405Z,2.03
2018-01-04T15:04:46.022Z,1.83
2018-01-04T15:07:13.685Z,3.07
2018-01-04T15:09:41.889Z,3.83
2018-01-04T15:12:09.608Z,2.20
2018-01-04T15:14:37.571Z,2.00
2018-01-04T15:17:05.169Z,2.10
2018-01-04T15:19:32.786Z,2.13
2018-01-04T15:22:00.434Z,1.50
2018-01-04T15:24:28.980Z,1.53
2018-01-04T15:26:56.674Z,1.90
2018-01-04T15:29:24.294Z,1.93
2018-01-04T15:31:51.894Z,1.60
2018-01-04T15:34:20.034Z,1.87
2018-01-04T15:36:47.704Z,1.57
2018-01-04T15:39:15.365Z,1.37
2018-01-04T15:41:42.948Z,1.70
2018-01-04T15:44:10.559Z,2.60
2018-01-04T15:46:38.223Z,1.40
2018-01-04T15:49:06.589Z,1.60
2018-01-04T15:51:34.235Z,1.30
2018-01-04T15:54:01.854Z,1.30
2018-01-04T15:56:29.560Z,1.50
2018-01-04T15:58:57.184Z,1.70
2018-01-04T16:01:24.821Z,1.60
2018-01-04T16:03:52.454Z,1.50
2018-01-04T16:06:20.093Z,1.60
2018-01-04T16:08:47.721Z,1.70
2018-01-04T16:11:16.138Z,1.70
2018-01-04T16:13:45.023Z,1.63
2018-01-04T16:16:12.673Z,1.47
2018-01-04T16:18:40.328Z,1.50
2018-01-04T16:21:07.995Z,1.30
2018-01-04T16:23:35.666Z,1.30
2018-01-04T16:26:03.340Z,1.30
2018-01-04T16:28:31.018Z,1.40
2018-01-04T16:30:58.709Z,1.50
2018-01-04T16:33:26.374Z,1.63
2018-01-04T16:35:54.584Z,1.60
2018-01-04T16:38:27.463Z,1.60
2018-01-04T16:40:56.146Z,1.50
2018-01-04T16:43:23.894Z,1.40
2018-01-04T16:45:51.567Z,1.57
2018-01-04T16:48:19.284Z,1.63
2018-01-04T16:50:47.095Z,1.50
2018-01-04T16:53:15.498Z,1.47
2018-01-04T16:55:43.166Z,1.47
2018-01-04T16:58:16.837Z,1.43
2018-01-04T17:00:44.600Z,1.50
2018-01-04T17:03:12.217Z,1.60
2018-01-04T17:05:39.968Z,1.50
2018-01-04T17:08:07.633Z,1.40
2018-01-04T17:10:35.288Z,1.40
2018-01-04T17:13:02.925Z,1.40
2018-01-04T17:15:30.564Z,1.50
2018-01-04T17:17:58.223Z,1.53
2018-01-04T17:20:25.813Z,1.50
2018-01-04T17:22:53.458Z,1.53
2018-01-04T17:25:21.087Z,1.80
2018-01-04T17:27:49.468Z,1.50
2018-01-04T17:30:17.093Z,1.60
2018-01-04T17:32:44.753Z,1.90
2018-01-04T17:35:12.380Z,1.73
2018-01-04T17:37:40.046Z,1.70
2018-01-04T17:40:07.639Z,1.83
2018-01-04T17:42:35.309Z,1.87
2018-01-04T17:45:02.946Z,1.47
2018-01-04T17:47:30.579Z,1.77
2018-01-04T17:49:58.155Z,1.80
2018-01-04T17:52:26.571Z,1.67
2018-01-04T17:54:54.195Z,1.60
2018-01-04T17:57:21.955Z,1.60
2018-01-04T17:59:49.627Z,1.90
2018-01-04T18:02:17.465Z,1.73
2018-01-04T18:04:45.058Z,1.80
2018-01-04T18:07:12.698Z,1.70
2018-01-04T18:09:40.294Z,2.13
2018-01-04T18:12:07.891Z,1.93
2018-01-04T18:14:36.335Z,2.10
2018-01-04T18:17:03.943Z,1.80
2018-01-04T18:19:32.988Z,1.63
2018-01-04T18:22:01.630Z,1.50
2018-01-04T18:24:30.023Z,1.60
2018-01-04T18:26:57.690Z,1.60
2018-01-04T18:29:25.299Z,1.80
2018-01-04T18:31:52.933Z,1.60
2018-01-04T18:34:20.576Z,1.80
2018-01-04T18:36:48.209Z,2.30
2018-01-04T18:39:15.804Z,2.10
2018-01-04T18:41:43.479Z,1.90
2018-01-04T18:44:11.078Z,2.03
2018-01-04T18:46:38.723Z,1.77
2018-01-04T18:49:06.356Z,1.70
2018-01-04T18:51:33.999Z,1.53
2018-01-04T18:54:01.656Z,1.30
2018-01-04T18:56:29.314Z,1.83
2018-01-04T18:58:56.958Z,1.70
2018-01-04T19:01:24.577Z,1.70
2018-01-04T19:03:52.170Z,1.40
2018-01-04T19:06:20.569Z,1.27
2018-01-04T19:08:48.191Z,1.37
2018-01-04T19:11:15.877Z,1.30
2018-01-04T19:13:44.233Z,1.40
2018-01-04T19:16:11.873Z,1.53
2018-01-04T19:18:41.498Z,1.40
2018-01-04T19:21:09.242Z,1.13
2018-01-04T19:23:36.882Z,1.40
2018-01-04T19:26:04.539Z,1.40
2018-01-04T19:28:32.325Z,1.30
2018-01-04T19:31:00.844Z,1.50
2018-01-04T19:33:28.576Z,1.40
2018-01-04T19:35:57.031Z,1.40
2018-01-04T19:38:24.666Z,1.80
2018-01-04T19:40:52.700Z,1.50
2018-01-04T19:43:20.356Z,1.80
2018-01-04T19:45:48.058Z,1.50
2018-01-04T19:48:15.723Z,1.40
2018-01-04T19:50:43.408Z,1.70
2018-01-04T19:53:12.329Z,1.70
2018-01-04T19:55:40.867Z,1.90
2018-01-04T19:58:08.511Z,2.00
2018-01-04T20:00:36.920Z,1.83
2018-01-04T20:03:04.562Z,1.70
2018-01-04T20:05:32.941Z,1.50
2018-01-04T20:08:00.586Z,1.80
2018-01-04T20:10:28.199Z,1.53
2018-01-04T20:12:55.824Z,1.30
2018-01-04T20:15:24.279Z,1.40
2018-01-04T20:17:51.962Z,1.10
2018-01-04T20:20:19.596Z,1.40
2018-01-04T20:22:47.826Z,1.73
2018-01-04T20:25:16.238Z,1.60
2018-01-04T20:27:44.773Z,1.50
2018-01-04T20:30:12.410Z,1.47
2018-01-04T20:32:40.128Z,1.60
2018-01-04T20:35:08.566Z,1.70
2018-01-04T20:37:38.124Z,1.50
2018-01-04T20:40:06.409Z,1.30
2018-01-04T20:42:34.063Z,1.50
2018-01-04T20:45:01.692Z,1.67
2018-01-04T20:47:29.295Z,1.40
2018-01-04T20:49:56.930Z,1.60
2018-01-04T20:52:24.546Z,1.70
2018-01-04T20:54:53.076Z,1.60
2018-01-04T20:57:20.710Z,1.80
2018-01-04T20:59:49.091Z,1.50
2018-01-04T21:02:16.717Z,1.60
2018-01-04T21:04:45.104Z,1.43
2018-01-04T21:07:13.088Z,1.60
2018-01-04T21:09:41.078Z,1.70
2018-01-04T21:12:09.225Z,1.80
2018-01-04T21:14:37.145Z,1.50
2018-01-04T21:17:05.113Z,1.90
2018-01-04T21:19:33.244Z,1.80
2018-01-04T21:22:01.909Z,1.40
2018-01-04T21:24:29.492Z,1.70
2018-01-04T21:26:57.072Z,2.17
2018-01-04T21:29:24.700Z,1.70
2018-01-04T21:31:53.092Z,1.77
2018-01-04T21:34:20.725Z,1.60
2018-01-04T21:36:50.190Z,1.70
2018-01-04T21:39:18.647Z,1.70
2018-01-04T21:41:46.554Z,1.90
2018-01-04T21:44:15.109Z,1.80
2018-01-04T21:46:44.968Z,1.70
2018-01-04T21:49:13.919Z,1.67
2018-01-04T21:51:42.653Z,1.90
2018-01-04T21:54:15.014Z,1.90
2018-01-04T21:56:43.106Z,1.70
2018-01-04T21:59:11.790Z,1.70
2018-01-04T22:01:39.513Z,1.80
2018-01-04T22:04:07.360Z,1.60
2018-01-04T22:06:35.916Z,1.80
2018-01-04T22:09:03.855Z,2.20
2018-01-04T22:11:31.657Z,1.90
2018-01-04T22:14:00.438Z,1.80
2018-01-04T22:16:28.309Z,1.73
2018-01-04T22:18:56.110Z,1.50
2018-01-04T22:21:23.789Z,1.70
2018-01-04T22:23:52.214Z,2.30
2018-01-04T22:26:20.035Z,1.80
2018-01-04T22:28:48.938Z,2.80
2018-01-04T22:31:16.590Z,2.30
2018-01-04T22:33:44.405Z,2.23
2018-01-04T22:36:13.105Z,1.73
2018-01-04T22:38:40.945Z,2.10
2018-01-04T22:41:09.326Z,2.43
2018-01-04T22:43:38.009Z,1.97
2018-01-04T22:46:09.467Z,2.13
2018-01-04T22:48:40.525Z,1.90
2018-01-04T22:51:08.585Z,2.13
2018-01-04T22:53:36.772Z,2.10
2018-01-04T22:56:04.701Z,2.23
2018-01-04T22:58:32.477Z,1.83
2018-01-04T23:01:00.246Z,1.80
2018-01-04T23:03:27.901Z,1.80
2018-01-04T23:05:55.518Z,2.00
2018-01-04T23:08:23.116Z,1.80
2018-01-04T23:10:50.764Z,1.93
2018-01-04T23:13:18.387Z,1.60
2018-01-04T23:15:46.070Z,1.47
2018-01-04T23:18:14.489Z,1.70
2018-01-04T23:20:42.129Z,1.60
2018-01-04T23:23:10.491Z,1.80
2018-01-04T23:25:38.121Z,1.47
2018-01-04T23:28:05.740Z,1.73
2018-01-04T23:30:33.347Z,1.70
2018-01-04T23:33:00.983Z,1.50
2018-01-04T23:35:29.441Z,1.60
2018-01-04T23:37:57.057Z,1.80
2018-01-04T23:40:24.708Z,1.83
2018-01-04T23:42:52.329Z,1.80
2018-01-04T23:45:19.972Z,1.70
2018-01-04T23:47:47.596Z,1.60
2018-01-04T23:50:16.025Z,1.60
2018-01-04T23:52:43.693Z,1.67
2018-01-04T23:55:11.307Z,2.00
2018-01-04T23:57:39.764Z,2.20
